Time;durP1;ratioP1;P1;durP2;ratioP2;P2;SDS_P1;SDS_P2;PMS_P1;PMS_P2;Temp;Humidity;BMP_temperature;BMP_pressure;BME280_temperature;BME280_humidity;BME280_pressure;Samples;Min_cycle;Max_cycle;Signal;HPM_P1;HPM_P2
2023/04/28 00:01:16;;;;;;;8.00;6.25;;;6.10;99.90;;;;;;4945566;28;20054;-58
2023/04/28 00:03:42;;;;;;;9.88;6.25;;;6.10;99.90;;;;;;4951438;28;20553;-59
2023/04/28 00:06:08;;;;;;;7.63;6.60;;;6.10;99.90;;;;;;4969443;28;20039;-61
2023/04/28 00:08:34;;;;;;;9.90;6.47;;;6.00;99.90;;;;;;4951971;28;20042;-59
2023/04/28 00:11:00;;;;;;;8.88;6.57;;;6.00;99.90;;;;;;4969992;28;20063;-59
2023/04/28 00:13:25;;;;;;;10.15;6.30;;;6.00;99.90;;;;;;4954661;28;20046;-59
2023/04/28 00:15:52;;;;;;;10.52;6.35;;;6.00;99.90;;;;;;4973037;28;20414;-58
2023/04/28 00:18:19;;;;;;;10.73;6.97;;;6.00;99.90;;;;;;4947957;28;20035;-61
2023/04/28 00:20:44;;;;;;;10.30;6.57;;;5.90;99.90;;;;;;4948929;28;20038;-61
2023/04/28 00:23:10;;;;;;;8.50;6.78;;;5.90;99.90;;;;;;4953635;28;20192;-60
2023/04/28 00:25:36;;;;;;;9.50;7.20;;;5.90;99.90;;;;;;4971025;28;20042;-60
2023/04/28 00:28:02;;;;;;;10.45;6.80;;;5.90;99.90;;;;;;4957487;28;20047;-58
2023/04/28 00:30:29;;;;;;;9.95;6.40;;;5.90;99.90;;;;;;4951536;28;20046;-59
2023/04/28 00:32:55;;;;;;;11.52;7.07;;;5.90;99.90;;;;;;4971741;28;20042;-59
2023/04/28 00:35:21;;;;;;;10.88;7.30;;;5.90;99.90;;;;;;4955228;28;20400;-58
2023/04/28 00:37:47;;;;;;;9.43;6.47;;;5.80;99.90;;;;;;4944890;28;20073;-59
2023/04/28 00:40:13;;;;;;;7.78;6.35;;;5.80;99.90;;;;;;4970433;28;20045;-60
2023/04/28 00:42:38;;;;;;;11.75;6.57;;;5.80;99.90;;;;;;4952408;28;20570;-58
2023/04/28 00:45:06;;;;;;;10.30;6.32;;;5.80;99.90;;;;;;4953323;28;20055;-59
2023/04/28 00:47:36;;;;;;;10.38;6.53;;;5.80;99.90;;;;;;4952169;28;20045;-61
2023/04/28 00:50:04;;;;;;;9.10;6.57;;;5.80;99.90;;;;;;4950958;28;20119;-59
2023/04/28 00:52:31;;;;;;;9.27;6.50;;;5.80;99.90;;;;;;4955401;28;20053;-59
2023/04/28 00:54:57;;;;;;;8.70;6.22;;;5.80;99.90;;;;;;4955419;28;20413;-59
2023/04/28 00:57:22;;;;;;;7.65;6.15;;;5.70;99.90;;;;;;4956225;28;20068;-59
2023/04/28 00:59:48;;;;;;;9.27;6.65;;;5.70;99.90;;;;;;4935232;28;20055;-60
2023/04/28 01:02:17;;;;;;;10.90;6.43;;;5.80;99.90;;;;;;4967436;28;20088;-60
2023/04/28 01:04:46;;;;;;;9.82;6.53;;;5.60;99.90;;;;;;4950993;28;21031;-58
2023/04/28 01:07:12;;;;;;;8.15;6.07;;;5.70;99.90;;;;;;4953487;28;20046;-60
2023/04/28 01:09:38;;;;;;;8.73;6.13;;;5.70;99.90;;;;;;4931752;28;20050;-60
2023/04/28 01:12:04;;;;;;;8.27;6.40;;;5.70;99.90;;;;;;4962535;28;20485;-60
2023/04/28 01:14:31;;;;;;;10.77;6.20;;;5.60;99.90;;;;;;4939234;28;20047;-59
2023/04/28 01:16:57;;;;;;;13.45;6.50;;;5.70;99.90;;;;;;4928222;28;20089;-59
2023/04/28 01:19:23;;;;;;;10.40;6.00;;;5.60;99.90;;;;;;4947779;28;20050;-60
2023/04/28 01:21:49;;;;;;;8.40;6.15;;;5.60;99.90;;;;;;4955030;28;20682;-60
2023/04/28 01:24:16;;;;;;;9.45;5.95;;;5.60;99.90;;;;;;4945163;28;20042;-60
2023/04/28 01:26:41;;;;;;;7.75;6.25;;;5.60;99.90;;;;;;4937636;28;20046;-59
2023/04/28 01:29:07;;;;;;;8.85;6.45;;;5.60;99.90;;;;;;4921577;28;20561;-59
2023/04/28 01:31:33;;;;;;;10.30;7.00;;;5.60;99.90;;;;;;4954792;28;20031;-59
2023/04/28 01:33:58;;;;;;;9.15;6.63;;;5.60;99.90;;;;;;4957645;28;20055;-58
2023/04/28 01:36:26;;;;;;;11.07;7.10;;;5.60;99.90;;;;;;4971011;28;20039;-59
2023/04/28 01:38:52;;;;;;;8.85;6.95;;;5.60;99.90;;;;;;4952426;28;20042;-59
2023/04/28 01:41:17;;;;;;;11.73;7.25;;;5.50;99.90;;;;;;4937822;28;20046;-60
2023/04/28 01:43:43;;;;;;;10.73;6.95;;;5.60;99.90;;;;;;4936661;28;20150;-58
2023/04/28 01:46:09;;;;;;;11.48;7.32;;;5.50;99.90;;;;;;4953513;28;20804;-60
2023/04/28 01:48:35;;;;;;;11.07;7.40;;;5.50;99.90;;;;;;4953528;28;20054;-60
2023/04/28 01:51:01;;;;;;;10.98;7.43;;;5.60;99.90;;;;;;4943675;28;20043;-60
2023/04/28 01:53:27;;;;;;;11.18;7.38;;;5.60;99.90;;;;;;4943222;28;20047;-58
2023/04/28 01:55:53;;;;;;;12.25;7.70;;;5.50;99.90;;;;;;4956412;28;20390;-59
2023/04/28 01:58:18;;;;;;;11.35;7.78;;;5.50;99.90;;;;;;4973384;28;20240;-60
2023/04/28 02:00:44;;;;;;;10.43;7.38;;;5.50;99.90;;;;;;4942846;28;20663;-59
2023/04/28 02:03:10;;;;;;;11.55;7.72;;;5.50;99.90;;;;;;4975427;28;20046;-58
2023/04/28 02:05:36;;;;;;;9.63;7.72;;;5.50;99.90;;;;;;4972795;28;20035;-58
2023/04/28 02:08:02;;;;;;;10.27;7.63;;;5.50;99.90;;;;;;4974455;28;20043;-58
2023/04/28 02:10:28;;;;;;;13.27;7.75;;;5.50;99.90;;;;;;4954418;28;20502;-60
2023/04/28 02:12:53;;;;;;;11.35;8.32;;;5.50;99.90;;;;;;4959559;28;20108;-60
2023/04/28 02:15:19;;;;;;;17.52;8.13;;;5.50;99.90;;;;;;4956704;28;20047;-60
2023/04/28 02:17:45;;;;;;;11.90;8.65;;;5.50;99.90;;;;;;4948297;28;20054;-60
2023/04/28 02:20:13;;;;;;;13.00;9.20;;;5.50;99.90;;;;;;4947871;28;20523;-60
2023/04/28 02:22:38;;;;;;;13.23;8.75;;;5.50;99.90;;;;;;4960744;28;20054;-58
2023/04/28 02:25:05;;;;;;;16.20;9.73;;;5.50;99.90;;;;;;4955884;28;20505;-59
2023/04/28 02:27:30;;;;;;;16.80;10.73;;;5.50;99.90;;;;;;4961069;28;20436;-60
2023/04/28 02:29:56;;;;;;;14.75;10.60;;;5.50;99.90;;;;;;4960328;28;20038;-59
2023/04/28 02:32:22;;;;;;;16.67;11.02;;;5.60;99.90;;;;;;4977820;28;20100;-58
2023/04/28 02:34:53;;;;;;;17.45;11.40;;;5.60;99.90;;;;;;4961186;28;20042;-60
2023/04/28 02:37:19;;;;;;;16.58;10.65;;;5.60;99.90;;;;;;4942299;28;20680;-58
2023/04/28 02:39:45;;;;;;;18.70;12.18;;;5.60;99.90;;;;;;4978003;28;20042;-58
2023/04/28 02:42:11;;;;;;;18.65;11.63;;;5.60;99.90;;;;;;4951981;28;20050;-60
2023/04/28 02:44:36;;;;;;;16.60;11.95;;;5.60;99.90;;;;;;4943219;28;20049;-58
2023/04/28 02:47:02;;;;;;;17.73;12.35;;;5.60;99.90;;;;;;4974545;28;20069;-60
2023/04/28 02:49:28;;;;;;;20.40;12.57;;;5.60;99.90;;;;;;4960559;28;20043;-58
2023/04/28 02:51:53;;;;;;;19.50;12.40;;;5.70;99.90;;;;;;4961553;28;20042;-59
2023/04/28 02:54:28;;;;;;;23.30;12.48;;;5.70;99.90;;;;;;4960393;28;20132;-58
2023/04/28 02:56:55;;;;;;;18.23;12.10;;;5.70;99.90;;;;;;4959681;28;20049;-60
2023/04/28 02:59:21;;;;;;;20.63;11.82;;;5.70;99.90;;;;;;4956639;28;20110;-61
2023/04/28 03:01:47;;;;;;;20.13;13.05;;;5.70;99.90;;;;;;4958535;28;20043;-59
2023/04/28 03:04:14;;;;;;;19.15;12.45;;;5.70;99.90;;;;;;4944694;28;20046;-61
2023/04/28 03:06:40;;;;;;;20.42;13.05;;;5.70;99.90;;;;;;4956367;28;20096;-59
2023/04/28 03:09:07;;;;;;;20.27;12.63;;;5.70;99.90;;;;;;4956257;28;20042;-59
2023/04/28 03:11:32;;;;;;;18.27;12.90;;;5.70;99.90;;;;;;4958633;28;20077;-59
2023/04/28 03:13:58;;;;;;;18.85;12.98;;;5.70;99.90;;;;;;4957327;28;20078;-58
2023/04/28 03:16:24;;;;;;;21.95;13.32;;;5.70;99.90;;;;;;4955648;28;20166;-59
2023/04/28 03:18:49;;;;;;;20.08;13.60;;;5.70;99.90;;;;;;4972417;28;20046;-60
2023/04/28 03:21:15;;;;;;;23.15;14.50;;;5.80;99.90;;;;;;4959421;28;20045;-60
2023/04/28 03:23:41;;;;;;;28.30;15.27;;;5.80;99.90;;;;;;4974134;28;20046;-60
2023/04/28 03:26:07;;;;;;;27.35;15.02;;;5.80;99.90;;;;;;4959113;28;20046;-59
2023/04/28 03:28:32;;;;;;;23.75;15.32;;;5.80;99.90;;;;;;4956101;28;20085;-60
2023/04/28 03:30:58;;;;;;;25.38;14.77;;;5.90;99.90;;;;;;4948814;28;20047;-60
2023/04/28 03:33:24;;;;;;;26.90;15.20;;;5.90;99.90;;;;;;4966453;28;20046;-60
2023/04/28 03:35:50;;;;;;;27.15;15.80;;;5.90;99.90;;;;;;4950324;28;20405;-59
2023/04/28 03:38:15;;;;;;;24.65;15.27;;;5.90;99.90;;;;;;4956979;28;20124;-58
2023/04/28 03:40:41;;;;;;;22.98;14.75;;;6.00;99.90;;;;;;4971002;28;20034;-59
2023/04/28 03:43:07;;;;;;;27.25;15.35;;;6.00;99.90;;;;;;4954542;28;20061;-59
2023/04/28 03:45:33;;;;;;;24.50;16.23;;;6.00;99.90;;;;;;4973705;28;20047;-60
2023/04/28 03:47:58;;;;;;;27.52;15.48;;;6.00;99.90;;;;;;4955345;28;20133;-60
2023/04/28 03:50:24;;;;;;;24.40;16.10;;;6.00;99.90;;;;;;4973410;28;20069;-58
2023/04/28 03:52:50;;;;;;;26.75;15.95;;;6.00;99.90;;;;;;4947953;28;20038;-59
2023/04/28 03:55:15;;;;;;;29.58;16.65;;;6.00;99.90;;;;;;4957454;28;20136;-58
2023/04/28 03:57:41;;;;;;;24.42;15.35;;;6.00;99.90;;;;;;4957442;28;20420;-59
2023/04/28 04:00:07;;;;;;;27.25;15.20;;;6.00;99.90;;;;;;4954557;28;20161;-58
2023/04/28 04:02:33;;;;;;;22.88;14.75;;;6.00;99.90;;;;;;4971402;28;20038;-58
2023/04/28 04:04:59;;;;;;;25.73;15.82;;;5.90;99.90;;;;;;4972974;28;20073;-60
2023/04/28 04:07:25;;;;;;;25.58;15.90;;;6.00;99.90;;;;;;4954847;28;20035;-58
2023/04/28 04:09:50;;;;;;;24.88;14.77;;;6.00;99.90;;;;;;4974555;28;20074;-60
2023/04/28 04:12:16;;;;;;;27.95;15.38;;;6.00;99.90;;;;;;4944558;28;20042;-58
2023/04/28 04:14:42;;;;;;;23.55;14.80;;;6.00;99.90;;;;;;4973227;28;20699;-60
2023/04/28 04:17:08;;;;;;;25.55;14.68;;;6.00;99.90;;;;;;4944627;28;20128;-60
2023/04/28 04:19:33;;;;;;;23.85;14.20;;;6.00;99.90;;;;;;4955094;28;20593;-58
2023/04/28 04:21:59;;;;;;;23.35;14.35;;;6.00;99.90;;;;;;4953703;28;20484;-59
2023/04/28 04:24:25;;;;;;;22.00;14.35;;;6.00;99.90;;;;;;4943628;28;20121;-59
2023/04/28 04:26:51;;;;;;;21.83;14.23;;;6.00;99.90;;;;;;4955757;28;20050;-61
2023/04/28 04:29:17;;;;;;;20.90;14.10;;;6.00;99.90;;;;;;4955901;28;20039;-57
2023/04/28 04:31:46;;;;;;;23.88;14.13;;;6.00;99.90;;;;;;4953073;28;20045;-59
2023/04/28 04:34:12;;;;;;;23.20;14.48;;;6.00;99.90;;;;;;4953374;28;20051;-60
2023/04/28 04:36:37;;;;;;;20.98;14.45;;;6.00;99.90;;;;;;4967808;28;20762;-59
2023/04/28 04:39:03;;;;;;;21.92;13.27;;;6.00;99.90;;;;;;4956893;28;20393;-59
2023/04/28 04:41:29;;;;;;;23.65;14.10;;;6.00;99.90;;;;;;4953108;28;20060;-58
2023/04/28 04:43:54;;;;;;;22.88;13.70;;;6.00;99.90;;;;;;4952319;28;20046;-60
2023/04/28 04:46:20;;;;;;;21.75;13.60;;;6.00;99.90;;;;;;4954316;28;20046;-58
2023/04/28 04:48:46;;;;;;;20.95;14.63;;;6.00;99.90;;;;;;4970415;28;20034;-59
2023/04/28 04:51:12;;;;;;;22.40;14.52;;;6.00;99.90;;;;;;4952020;28;20041;-59
2023/04/28 04:53:38;;;;;;;29.77;13.88;;;6.10;99.90;;;;;;4970402;28;20120;-58
2023/04/28 04:56:04;;;;;;;22.10;14.05;;;6.00;99.90;;;;;;4949996;28;20419;-60
2023/04/28 04:58:30;;;;;;;20.92;13.50;;;6.00;99.90;;;;;;4967684;28;20043;-58
2023/04/28 05:00:56;;;;;;;21.67;14.00;;;6.00;99.90;;;;;;4952365;28;20050;-60
2023/04/28 05:03:22;;;;;;;22.38;13.50;;;6.00;99.90;;;;;;4960671;28;20508;-59
2023/04/28 05:05:48;;;;;;;20.42;13.45;;;6.00;99.90;;;;;;4947729;28;20041;-58
2023/04/28 05:08:13;;;;;;;21.20;13.57;;;6.00;99.90;;;;;;4953032;28;20154;-60
2023/04/28 05:10:39;;;;;;;22.55;13.93;;;6.00;99.90;;;;;;4970531;28;20038;-58
2023/04/28 05:13:05;;;;;;;19.23;13.13;;;6.00;99.90;;;;;;4947317;28;20042;-59
2023/04/28 05:15:31;;;;;;;22.10;13.55;;;6.00;99.90;;;;;;4949738;28;20404;-58
2023/04/28 05:17:57;;;;;;;21.90;12.77;;;6.00;99.90;;;;;;4964995;28;20089;-59
2023/04/28 05:20:23;;;;;;;17.42;12.32;;;6.00;99.90;;;;;;4949459;28;20053;-60
2023/04/28 05:22:49;;;;;;;20.55;12.75;;;6.00;99.90;;;;;;4945302;28;20449;-59
2023/04/28 05:25:15;;;;;;;21.85;12.63;;;6.00;99.90;;;;;;4951487;28;20084;-60
2023/04/28 05:27:41;;;;;;;21.35;13.02;;;6.00;99.90;;;;;;4971866;28;20034;-59
2023/04/28 05:30:09;;;;;;;19.83;12.60;;;6.00;99.90;;;;;;4961359;28;20051;-58
2023/04/28 05:32:35;;;;;;;20.33;12.57;;;6.00;99.90;;;;;;4964871;28;20041;-58
2023/04/28 05:35:01;;;;;;;17.23;12.05;;;6.10;99.90;;;;;;4962659;28;20046;-59
2023/04/28 05:37:27;;;;;;;18.58;12.82;;;6.10;99.90;;;;;;4957506;28;20054;-60
2023/04/28 05:39:54;;;;;;;19.95;12.50;;;6.10;99.90;;;;;;4960649;28;20050;-59
2023/04/28 05:42:20;;;;;;;20.23;12.55;;;6.10;99.90;;;;;;4973830;28;20058;-58
2023/04/28 05:44:45;;;;;;;18.08;12.48;;;6.10;99.90;;;;;;4958743;28;20046;-58
2023/04/28 05:47:11;;;;;;;18.30;11.07;;;6.20;99.90;;;;;;4974685;28;20045;-58
2023/04/28 05:49:37;;;;;;;19.10;11.82;;;6.30;99.90;;;;;;4955267;28;20091;-57
2023/04/28 05:52:03;;;;;;;16.35;12.05;;;6.30;99.90;;;;;;4955263;28;20038;-60
2023/04/28 05:54:29;;;;;;;17.75;11.88;;;6.30;99.90;;;;;;4962149;28;20058;-58
2023/04/28 05:56:55;;;;;;;20.20;11.73;;;6.30;99.90;;;;;;4961398;28;20050;-59
2023/04/28 05:59:21;;;;;;;19.77;12.63;;;6.40;99.90;;;;;;4975539;28;20047;-59
2023/04/28 06:01:47;;;;;;;18.58;11.48;;;6.40;99.90;;;;;;4958824;28;20780;-58
2023/04/28 06:04:12;;;;;;;21.35;12.27;;;6.40;99.90;;;;;;4979933;28;20081;-60
2023/04/28 06:06:38;;;;;;;17.23;10.57;;;6.50;99.90;;;;;;4958996;28;20524;-59
2023/04/28 06:09:04;;;;;;;13.57;10.25;;;6.40;99.90;;;;;;4976033;28;20485;-58
2023/04/28 06:11:30;;;;;;;16.67;11.05;;;6.50;99.90;;;;;;4956439;28;20082;-58
2023/04/28 06:13:56;;;;;;;19.33;11.90;;;6.50;99.90;;;;;;4959109;28;20038;-58
2023/04/28 06:16:22;;;;;;;20.45;11.68;;;6.60;99.90;;;;;;4977781;28;20101;-58
2023/04/28 06:18:48;;;;;;;17.00;11.52;;;6.60;99.90;;;;;;4974971;28;20046;-59
2023/04/28 06:21:14;;;;;;;21.30;11.82;;;6.60;99.90;;;;;;4960753;28;20125;-58
2023/04/28 06:23:41;;;;;;;17.35;11.02;;;6.70;99.90;;;;;;4958739;28;20050;-60
2023/04/28 06:26:07;;;;;;;18.92;11.35;;;6.70;99.90;;;;;;4943676;28;20113;-58
2023/04/28 06:28:33;;;;;;;19.80;10.93;;;6.70;99.90;;;;;;4961573;28;20038;-59
2023/04/28 06:30:59;;;;;;;15.75;10.98;;;6.80;99.90;;;;;;4963329;28;20399;-59
2023/04/28 06:33:25;;;;;;;16.70;11.25;;;6.90;99.90;;;;;;4979585;28;20048;-59
2023/04/28 06:35:51;;;;;;;15.95;10.77;;;6.90;99.90;;;;;;4976076;28;20039;-59
2023/04/28 06:38:17;;;;;;;15.15;10.75;;;7.00;99.90;;;;;;4977334;28;20042;-57
2023/04/28 06:40:44;;;;;;;21.27;11.10;;;7.00;99.90;;;;;;4958319;28;20049;-57
2023/04/28 06:43:10;;;;;;;16.17;10.90;;;7.10;99.90;;;;;;4975525;28;20050;-59
2023/04/28 06:45:36;;;;;;;16.35;11.00;;;7.10;99.90;;;;;;4973835;28;20050;-57
2023/04/28 06:48:02;;;;;;;16.27;11.10;;;7.20;99.90;;;;;;4976119;28;20046;-59
2023/04/28 06:50:28;;;;;;;17.25;10.90;;;7.20;99.90;;;;;;4938940;28;20055;-60
2023/04/28 06:52:54;;;;;;;17.60;10.77;;;7.30;99.90;;;;;;4969514;28;20050;-60
2023/04/28 06:55:20;;;;;;;13.00;9.80;;;7.40;99.90;;;;;;4955856;28;20425;-59
2023/04/28 06:57:45;;;;;;;17.52;10.20;;;7.40;99.90;;;;;;4970145;28;20034;-59
2023/04/28 07:00:12;;;;;;;17.40;9.82;;;7.40;99.90;;;;;;4957834;28;20145;-57
2023/04/28 07:02:38;;;;;;;17.42;10.63;;;7.40;99.90;;;;;;4954346;28;20054;-59
2023/04/28 07:05:04;;;;;;;14.43;9.73;;;7.40;99.90;;;;;;4973720;28;20048;-58
2023/04/28 07:07:30;;;;;;;17.48;10.65;;;7.40;99.90;;;;;;4947758;28;20053;-60
2023/04/28 07:09:57;;;;;;;19.58;10.05;;;7.50;99.90;;;;;;4954217;28;20121;-58
2023/04/28 07:12:23;;;;;;;16.90;10.75;;;7.50;99.90;;;;;;4951839;28;20081;-57
2023/04/28 07:14:49;;;;;;;20.75;11.30;;;7.60;99.90;;;;;;4943837;28;20061;-58
2023/04/28 07:17:16;;;;;;;16.42;10.35;;;7.70;99.90;;;;;;4948587;28;20093;-59
2023/04/28 07:19:41;;;;;;;14.68;10.38;;;7.70;99.90;;;;;;4968792;28;20043;-57
2023/04/28 07:22:07;;;;;;;13.57;10.18;;;7.80;99.90;;;;;;4969818;28;20034;-59
2023/04/28 07:24:33;;;;;;;19.77;10.65;;;7.90;99.90;;;;;;4955804;28;20129;-59
2023/04/28 07:26:58;;;;;;;15.82;9.85;;;7.90;99.90;;;;;;4951151;28;20400;-57
2023/04/28 07:29:27;;;;;;;16.20;10.48;;;8.00;99.90;;;;;;4972801;28;20478;-58
2023/04/28 07:31:53;;;;;;;15.65;10.70;;;8.00;99.90;;;;;;4955893;28;20098;-58
2023/04/28 07:34:19;;;;;;;16.60;10.55;;;8.00;99.90;;;;;;4974708;28;20042;-60
2023/04/28 07:36:44;;;;;;;15.95;10.85;;;8.10;99.90;;;;;;4941277;28;20050;-58
2023/04/28 07:39:10;;;;;;;17.38;10.13;;;8.10;99.90;;;;;;4975768;28;20118;-59
2023/04/28 07:41:39;;;;;;;18.42;10.77;;;8.10;99.90;;;;;;4956682;28;20046;-58
2023/04/28 07:44:07;;;;;;;18.30;10.77;;;8.10;99.90;;;;;;4957159;28;20086;-59
2023/04/28 07:46:33;;;;;;;17.13;11.20;;;8.10;99.90;;;;;;4957176;28;20039;-60
2023/04/28 07:48:59;;;;;;;16.65;11.07;;;8.20;99.90;;;;;;4960369;28;20383;-59
2023/04/28 07:51:25;;;;;;;18.85;11.20;;;8.20;99.90;;;;;;4963539;28;20061;-57
2023/04/28 07:53:51;;;;;;;14.85;11.10;;;8.20;99.90;;;;;;4954483;28;20039;-57
2023/04/28 07:56:17;;;;;;;14.35;10.30;;;8.20;99.90;;;;;;4953817;28;20034;-58
2023/04/28 07:58:43;;;;;;;14.85;10.35;;;8.30;99.90;;;;;;4973730;28;20548;-58
2023/04/28 08:01:09;;;;;;;17.65;11.10;;;8.30;99.90;;;;;;4948297;28;20172;-60
2023/04/28 08:03:34;;;;;;;18.08;11.02;;;8.30;99.90;;;;;;4954922;28;20047;-58
2023/04/28 08:06:00;;;;;;;15.75;10.25;;;8.40;99.90;;;;;;4968840;28;20636;-58
2023/04/28 08:08:26;;;;;;;16.23;10.57;;;8.40;99.90;;;;;;4973994;28;20038;-60
2023/04/28 08:10:53;;;;;;;15.68;10.90;;;8.40;99.90;;;;;;4973620;28;20050;-57
2023/04/28 08:13:19;;;;;;;16.92;10.90;;;8.40;99.90;;;;;;4955452;28;20043;-57
2023/04/28 08:15:46;;;;;;;22.08;11.40;;;8.40;99.90;;;;;;4972539;28;20113;-59
2023/04/28 08:18:12;;;;;;;17.33;10.95;;;8.40;99.90;;;;;;4955840;28;20050;-59
2023/04/28 08:20:38;;;;;;;20.10;11.60;;;8.40;99.90;;;;;;4948374;28;20089;-57
2023/04/28 08:23:04;;;;;;;16.48;10.95;;;8.40;99.90;;;;;;4949569;28;20668;-59
2023/04/28 08:25:29;;;;;;;19.52;11.82;;;8.40;99.90;;;;;;4947396;28;20129;-60
2023/04/28 08:27:56;;;;;;;19.17;10.95;;;8.40;99.90;;;;;;4951548;28;20085;-58
2023/04/28 08:30:21;;;;;;;17.30;11.35;;;8.50;99.90;;;;;;4953945;28;20125;-58
2023/04/28 08:32:47;;;;;;;16.10;11.45;;;8.50;99.90;;;;;;4957469;28;20109;-58
2023/04/28 08:35:14;;;;;;;20.02;11.90;;;8.50;99.90;;;;;;4925220;28;20500;-57
2023/04/28 08:37:41;;;;;;;14.77;10.93;;;8.50;99.90;;;;;;4958206;28;20050;-58
2023/04/28 08:40:10;;;;;;;16.27;10.75;;;8.60;99.90;;;;;;4958711;28;21060;-58
2023/04/28 08:42:36;;;;;;;17.27;11.32;;;8.60;99.90;;;;;;4951113;28;20058;-58
2023/04/28 08:45:04;;;;;;;17.80;11.55;;;8.60;99.90;;;;;;4945674;28;20486;-58
2023/04/28 08:47:44;;;;;;;20.45;12.20;;;8.60;99.90;;;;;;4937183;28;20401;-60
2023/04/28 08:50:14;;;;;;;18.13;11.40;;;8.60;99.90;;;;;;4966901;28;20125;-59
2023/04/28 08:52:41;;;;;;;13.93;11.05;;;8.60;99.90;;;;;;4944939;28;20047;-59
2023/04/28 08:55:09;;;;;;;21.70;12.27;;;8.60;99.90;;;;;;4950869;28;20042;-59
2023/04/28 08:57:42;;;;;;;17.75;11.85;;;8.60;99.90;;;;;;4950559;28;20046;-58
2023/04/28 09:00:09;;;;;;;15.98;12.55;;;8.70;99.90;;;;;;4954418;28;20094;-58
2023/04/28 09:02:36;;;;;;;18.67;12.18;;;8.70;99.90;;;;;;4948636;28;20038;-59
2023/04/28 09:05:05;;;;;;;19.83;12.73;;;8.90;99.90;;;;;;4969520;28;20498;-58
2023/04/28 09:07:31;;;;;;;18.90;12.18;;;9.00;99.90;;;;;;4965902;28;20043;-59
2023/04/28 09:10:20;;;;;;;18.02;12.98;;;9.10;99.90;;;;;;4959739;28;20058;-59
2023/04/28 09:12:48;;;;;;;17.55;12.27;;;9.20;99.90;;;;;;4965039;28;20132;-58
2023/04/28 09:15:36;;;;;;;19.15;12.43;;;9.40;99.90;;;;;;4942960;28;20137;-59
2023/04/28 09:18:06;;;;;;;16.70;12.27;;;9.50;99.90;;;;;;4960698;28;20057;-60
2023/04/28 09:20:33;;;;;;;18.23;12.43;;;9.60;99.90;;;;;;4941545;28;20054;-59
2023/04/28 09:23:20;;;;;;;16.42;11.73;;;9.60;99.90;;;;;;4961912;28;20043;-58
2023/04/28 09:26:06;;;;;;;19.30;12.13;;;9.60;99.90;;;;;;4960779;28;20493;-58
2023/04/28 09:28:33;;;;;;;17.25;11.65;;;9.70;99.90;;;;;;4965128;28;20046;-59
2023/04/28 09:31:00;;;;;;;16.42;11.98;;;9.80;99.90;;;;;;4946104;28;20047;-60
2023/04/28 09:33:26;;;;;;;21.60;12.32;;;9.80;99.90;;;;;;4946836;28;20173;-57
2023/04/28 09:35:52;;;;;;;16.90;11.40;;;9.90;99.90;;;;;;4945114;28;21002;-57
2023/04/28 09:38:19;;;;;;;17.27;12.07;;;9.90;99.90;;;;;;4934072;28;20057;-58
2023/04/28 09:40:57;;;;;;;15.57;11.77;;;10.00;99.90;;;;;;4960833;28;20438;-58
2023/04/28 09:43:33;;;;;;;16.60;11.82;;;10.10;99.90;;;;;;4945207;28;20129;-59
2023/04/28 09:46:01;;;;;;;21.05;11.05;;;10.30;99.90;;;;;;4943246;28;20470;-60
2023/04/28 09:48:29;;;;;;;17.58;11.68;;;10.50;99.90;;;;;;4944292;28;20128;-60
2023/04/28 09:50:56;;;;;;;17.75;11.95;;;10.70;99.90;;;;;;4943676;28;20096;-58
2023/04/28 09:53:23;;;;;;;17.63;10.55;;;10.90;99.90;;;;;;4961872;28;24342;-60
2023/04/28 09:55:52;;;;;;;15.13;11.18;;;11.20;99.90;;;;;;4946979;28;20038;-58
2023/04/28 09:58:20;;;;;;;19.70;11.35;;;11.40;99.90;;;;;;4943649;28;20050;-58
2023/04/28 10:00:56;;;;;;;16.40;10.18;;;11.60;99.90;;;;;;4960951;28;20121;-58
2023/04/28 10:03:25;;;;;;;19.33;10.68;;;11.70;99.90;;;;;;4947886;28;20065;-60
2023/04/28 10:05:52;;;;;;;17.25;10.77;;;11.70;99.90;;;;;;4963743;28;20080;-58
2023/04/28 10:08:22;;;;;;;17.50;11.02;;;11.80;99.90;;;;;;4942446;28;20050;-58
2023/04/28 10:10:55;;;;;;;16.27;10.40;;;11.90;99.90;;;;;;4947487;28;20158;-60
2023/04/28 10:13:22;;;;;;;15.82;10.98;;;11.90;99.90;;;;;;4944969;28;20050;-58
2023/04/28 10:15:49;;;;;;;15.10;10.38;;;12.00;99.90;;;;;;4964690;28;20038;-58
2023/04/28 10:18:15;;;;;;;20.13;10.82;;;12.00;99.90;;;;;;4963955;28;20161;-59
2023/04/28 10:20:48;;;;;;;19.05;10.82;;;12.00;99.90;;;;;;4935313;28;20045;-59
2023/04/28 10:23:56;;;;;;;15.43;10.60;;;12.00;99.90;;;;;;4964193;28;20045;-59
2023/04/28 10:26:46;;;;;;;16.77;11.63;;;12.10;99.90;;;;;;4956606;28;20058;-59
2023/04/28 10:29:12;;;;;;;15.77;11.05;;;12.30;99.90;;;;;;4949094;28;20045;-58
2023/04/28 10:31:38;;;;;;;18.48;11.73;;;12.40;99.90;;;;;;4947149;28;20046;-59
2023/04/28 10:34:24;;;;;;;16.95;11.55;;;12.50;99.90;;;;;;4965450;28;20074;-59
2023/04/28 10:36:53;;;;;;;21.58;10.98;;;12.60;99.90;;;;;;4964052;28;20046;-59
2023/04/28 10:39:20;;;;;;;17.83;11.23;;;12.70;99.90;;;;;;4950681;28;20137;-58
2023/04/28 10:41:47;;;;;;;16.35;11.18;;;12.70;99.90;;;;;;4964441;28;22725;-60
2023/04/28 10:44:32;;;;;;;16.88;10.60;;;12.70;99.90;;;;;;4965741;28;20180;-58
2023/04/28 10:47:06;;;;;;;15.98;10.80;;;12.70;99.90;;;;;;4945691;28;20125;-60
2023/04/28 10:49:57;;;;;;;14.98;10.98;;;12.70;99.90;;;;;;4964069;28;20039;-59
2023/04/28 10:52:33;;;;;;;16.45;10.55;;;12.60;99.90;;;;;;4945411;28;20482;-60
2023/04/28 10:55:25;;;;;;;19.27;10.73;;;12.60;99.90;;;;;;4962115;28;20054;-60
2023/04/28 10:58:24;;;;;;;19.93;11.53;;;12.60;99.90;;;;;;4944806;28;20054;-59
2023/04/28 11:00:53;;;;;;;19.88;11.93;;;12.60;99.90;;;;;;4915287;28;20121;-60
2023/04/28 11:03:50;;;;;;;16.02;11.82;;;12.60;99.90;;;;;;4943075;28;20058;-58
2023/04/28 11:06:27;;;;;;;18.63;11.90;;;12.50;99.90;;;;;;4960816;28;20819;-58
2023/04/28 11:08:59;;;;;;;20.25;12.10;;;12.50;99.90;;;;;;4944000;28;20089;-60
2023/04/28 11:11:33;;;;;;;18.73;12.00;;;12.50;99.90;;;;;;4963389;28;20114;-59
2023/04/28 11:14:18;;;;;;;15.63;12.07;;;12.50;99.90;;;;;;4964334;28;20050;-58
2023/04/28 11:16:58;;;;;;;17.27;12.50;;;12.40;99.90;;;;;;4962243;28;20080;-61
2023/04/28 11:19:35;;;;;;;18.05;12.30;;;12.40;99.90;;;;;;4944383;28;20417;-61
2023/04/28 11:22:14;;;;;;;14.90;11.40;;;12.30;99.90;;;;;;4965093;28;20361;-59
2023/04/28 11:24:40;;;;;;;16.15;12.30;;;12.30;99.90;;;;;;4951117;28;20081;-60
2023/04/28 11:27:07;;;;;;;19.10;12.15;;;12.30;99.90;;;;;;4963957;28;20070;-59
2023/04/28 11:29:38;;;;;;;13.95;12.07;;;12.30;99.90;;;;;;4954009;28;20097;-60
2023/04/28 11:32:08;;;;;;;18.48;12.10;;;12.30;99.90;;;;;;4964036;28;20113;-61
2023/04/28 11:34:35;;;;;;;19.55;12.27;;;12.30;99.90;;;;;;4942992;28;20100;-60
2023/04/28 11:37:01;;;;;;;18.27;12.20;;;12.40;99.90;;;;;;4944458;28;20062;-61
2023/04/28 11:39:29;;;;;;;16.38;13.02;;;12.30;99.90;;;;;;4964721;28;20489;-59
2023/04/28 11:41:56;;;;;;;19.65;12.82;;;12.30;99.90;;;;;;4965368;28;20058;-60
2023/04/28 11:44:24;;;;;;;19.27;12.80;;;12.40;99.90;;;;;;4963336;28;20042;-61
2023/04/28 11:47:01;;;;;;;16.42;12.75;;;12.30;99.90;;;;;;4963821;28;20494;-59
2023/04/28 11:49:28;;;;;;;18.35;13.48;;;12.40;99.90;;;;;;4944706;28;20401;-63
2023/04/28 11:51:54;;;;;;;15.68;13.02;;;12.40;99.90;;;;;;4947921;28;20057;-60
2023/04/28 11:54:24;;;;;;;19.95;12.35;;;12.40;99.90;;;;;;4959581;28;20583;-60
2023/04/28 11:56:52;;;;;;;19.73;12.57;;;12.40;99.90;;;;;;4965485;28;20053;-60
2023/04/28 11:59:23;;;;;;;23.27;12.88;;;12.40;99.90;;;;;;4963679;28;20058;-58
2023/04/28 12:01:54;;;;;;;22.48;12.70;;;12.40;99.90;;;;;;4942989;28;20083;-59
2023/04/28 12:04:37;;;;;;;18.95;12.88;;;12.40;99.90;;;;;;4948016;28;20046;-61
2023/04/28 12:07:10;;;;;;;17.10;12.77;;;12.40;99.90;;;;;;4961807;28;20034;-60
2023/04/28 12:09:57;;;;;;;16.83;12.27;;;12.40;99.90;;;;;;4945737;28;20097;-60
2023/04/28 12:12:32;;;;;;;24.05;13.73;;;12.30;99.90;;;;;;4933063;28;20148;-60
2023/04/28 12:15:00;;;;;;;17.20;13.20;;;12.20;99.90;;;;;;4963432;28;20059;-61
2023/04/28 12:17:27;;;;;;;18.48;12.90;;;12.20;99.90;;;;;;4931708;28;20112;-61
2023/04/28 12:19:54;;;;;;;18.02;13.35;;;12.20;99.90;;;;;;4942334;28;20186;-59
2023/04/28 12:22:20;;;;;;;16.10;12.70;;;12.20;99.90;;;;;;4940808;28;20092;-59
2023/04/28 12:25:01;;;;;;;16.98;12.50;;;12.20;99.90;;;;;;4925657;28;20039;-61
2023/04/28 12:27:27;;;;;;;20.15;12.57;;;12.20;99.90;;;;;;4946112;28;20047;-59
2023/04/28 12:29:55;;;;;;;16.88;13.02;;;12.20;99.90;;;;;;4943215;28;20177;-60
2023/04/28 12:32:40;;;;;;;17.55;12.60;;;12.20;99.90;;;;;;4928941;28;20175;-61
2023/04/28 12:35:07;;;;;;;14.93;11.77;;;12.20;99.90;;;;;;4947244;28;20074;-61
2023/04/28 12:37:32;;;;;;;19.33;13.15;;;12.20;99.90;;;;;;4942164;28;20057;-58
2023/04/28 12:39:59;;;;;;;17.30;12.70;;;12.20;99.90;;;;;;4943540;28;20051;-58
2023/04/28 12:42:24;;;;;;;17.98;12.93;;;12.30;99.90;;;;;;4943066;28;20101;-60